Terminal Aerodrome Forecast
Issued by NWS

Home | Current Version | Previous Version | Graphics & Text | Print | Product List | Glossary On
Versions: 1 2 3 4 5 6 7 8 9 10 11 12 13 14
000
FTUS43 KICT 101739
TAFCNU
TAF
KCNU 101739Z 1018/1118 16011KT P6SM OVC040
     FM102100 16010KT P6SM BKN250
     FM110500 16011KT P6SM BKN035
     FM110900 17013KT P6SM OVC025
     FM111100 17015KT 4SM -DZ BR SCT007 OVC025
     FM111400 18013KT 2SM -DZ BR OVC007=

USA.gov is the U.S. government's official web portal to all federal, state and local government web resources and services.